createdAt,value
2022-11-29T00:02:15.131Z,94567.69
2022-11-29T00:04:41.986Z,94561.13
2022-11-29T00:07:08.519Z,94564.41
2022-11-29T00:09:35.902Z,94567.03
2022-11-29T00:12:02.450Z,94563.75
2022-11-29T00:14:28.834Z,94570.81
2022-11-29T00:16:55.384Z,94563.75
2022-11-29T00:19:21.772Z,94569.50
2022-11-29T00:21:50.695Z,94561.28
2022-11-29T00:24:17.130Z,94563.75
2022-11-29T00:26:43.467Z,94560.13
2022-11-29T00:29:14.067Z,94557.50
2022-11-29T00:31:40.462Z,94551.44
2022-11-29T00:34:07.389Z,94559.97
2022-11-29T00:36:34.328Z,94556.19
2022-11-29T00:39:00.783Z,94546.66
2022-11-29T00:41:27.228Z,94554.22
2022-11-29T00:43:53.685Z,94558.97
2022-11-29T00:46:20.199Z,94559.97
2022-11-29T00:48:46.705Z,94558.81
2022-11-29T00:51:13.079Z,94560.28
2022-11-29T00:53:39.499Z,94559.16
2022-11-29T00:56:06.190Z,94555.22
2022-11-29T00:58:32.667Z,94553.53
2022-11-29T01:00:59.062Z,94552.75
2022-11-29T01:03:25.472Z,94548.63
2022-11-29T01:05:51.866Z,94553.72
2022-11-29T01:08:18.264Z,94550.91
2022-11-29T01:10:44.828Z,94553.41
2022-11-29T01:13:11.263Z,94547.81
2022-11-29T01:15:37.657Z,94552.56
2022-11-29T01:18:04.045Z,94550.91
2022-11-29T01:20:30.417Z,94551.91
2022-11-29T01:22:57.875Z,94552.38
2022-11-29T01:25:24.254Z,94550.41
2022-11-29T01:30:40.628Z,94548.13
2022-11-29T01:33:06.974Z,94551.44
2022-11-29T01:35:33.304Z,94550.59
2022-11-29T01:37:59.649Z,94544.69
2022-11-29T01:40:25.998Z,94547.78
2022-11-29T01:42:52.351Z,94541.72
2022-11-29T01:45:18.743Z,94539.91
2022-11-29T01:47:45.071Z,94543.38
2022-11-29T01:50:11.425Z,94540.09
2022-11-29T01:52:37.806Z,94539.25
2022-11-29T01:55:04.194Z,94539.25
2022-11-29T02:00:14.657Z,94540.75
2022-11-29T02:02:41.124Z,94540.56
2022-11-29T02:05:07.482Z,94540.25
2022-11-29T02:07:33.894Z,94543.56
2022-11-29T02:10:00.299Z,94540.91
2022-11-29T02:12:26.676Z,94534.84
2022-11-29T02:14:53.018Z,94538.28
2022-11-29T02:17:19.342Z,94535.50
2022-11-29T02:19:45.715Z,94539.75
2022-11-29T02:22:12.047Z,94531.88
2022-11-29T02:24:38.413Z,94538.13
2022-11-29T02:27:04.796Z,94535.50
2022-11-29T02:29:31.355Z,94528.59
2022-11-29T02:31:57.725Z,94536.31
2022-11-29T02:34:24.261Z,94532.88
2022-11-29T02:36:50.682Z,94524.00
2022-11-29T02:39:17.141Z,94529.25
2022-11-29T02:41:43.467Z,94534.34
2022-11-29T02:44:09.820Z,94526.63
2022-11-29T02:46:37.214Z,94533.03
2022-11-29T02:49:03.651Z,94533.81
2022-11-29T02:51:30.035Z,94535.78
2022-11-29T02:53:56.366Z,94529.88
2022-11-29T02:56:23.737Z,94534.97
2022-11-29T02:58:50.202Z,94537.22
2022-11-29T03:01:16.591Z,94538.22
2022-11-29T03:03:42.998Z,94538.53
2022-11-29T03:06:09.321Z,94542.28
2022-11-29T03:08:35.756Z,94546.22
2022-11-29T03:11:02.137Z,94550.25
2022-11-29T03:13:28.845Z,94546.19
2022-11-29T03:15:55.383Z,94543.56
2022-11-29T03:18:21.858Z,94537.69
2022-11-29T03:20:48.219Z,94539.66
2022-11-29T03:23:14.712Z,94540.00
2022-11-29T03:25:41.055Z,94544.59
2022-11-29T03:28:07.380Z,94539.03
2022-11-29T03:30:34.522Z,94538.72
2022-11-29T03:33:03.654Z,94542.00
2022-11-29T03:35:33.113Z,94542.66
2022-11-29T03:37:59.753Z,94545.78
2022-11-29T03:40:26.498Z,94545.94
2022-11-29T03:42:52.860Z,94541.16
2022-11-29T03:45:19.332Z,94538.88
2022-11-29T03:47:45.691Z,94539.53
2022-11-29T03:50:12.054Z,94540.00
2022-11-29T03:52:38.585Z,94540.97
2022-11-29T03:55:05.199Z,94536.53
2022-11-29T03:57:31.515Z,94539.03
2022-11-29T03:59:57.875Z,94529.19
2022-11-29T04:02:24.317Z,94534.09
2022-11-29T04:04:51.164Z,94533.13
2022-11-29T04:07:17.620Z,94531.47
2022-11-29T04:09:44.158Z,94533.28
2022-11-29T04:12:10.507Z,94541.47
2022-11-29T04:14:36.875Z,94544.56
2022-11-29T04:17:03.484Z,94548.03
2022-11-29T04:19:29.947Z,94545.88
2022-11-29T04:21:56.316Z,94542.59
2022-11-29T04:24:22.644Z,94538.84
2022-11-29T04:26:48.972Z,94543.25
2022-11-29T04:29:15.293Z,94546.22
2022-11-29T04:31:41.875Z,94549.09
2022-11-29T04:34:08.414Z,94543.81
2022-11-29T04:36:34.749Z,94547.41
2022-11-29T04:39:01.711Z,94551.00
2022-11-29T04:41:28.082Z,94552.41
2022-11-29T04:43:54.520Z,94552.13
2022-11-29T04:46:20.924Z,94561.81
2022-11-29T04:48:47.306Z,94562.31
2022-11-29T04:51:13.792Z,94572.34
2022-11-29T04:53:40.617Z,94563.31
2022-11-29T04:56:07.162Z,94558.59
2022-11-29T04:58:33.522Z,94563.53
2022-11-29T05:00:59.938Z,94564.00
2022-11-29T05:03:28.949Z,94568.13
2022-11-29T05:05:55.547Z,94566.19
2022-11-29T05:08:21.882Z,94566.66
2022-11-29T05:10:48.415Z,94573.56
2022-11-29T05:13:14.929Z,94571.91
2022-11-29T05:15:41.841Z,94572.44
2022-11-29T05:18:08.242Z,94577.69
2022-11-29T05:20:34.618Z,94583.75
2022-11-29T05:23:00.954Z,94579.16
2022-11-29T05:25:27.287Z,94572.94
2022-11-29T05:27:53.648Z,94584.28
2022-11-29T05:30:19.988Z,94585.91
2022-11-29T05:32:46.373Z,94583.09
2022-11-29T05:35:12.746Z,94582.97
2022-11-29T05:37:39.130Z,94588.06
2022-11-29T05:40:05.688Z,94588.22
2022-11-29T05:42:34.214Z,94586.38
2022-11-29T05:45:00.543Z,94592.22
2022-11-29T05:47:31.330Z,94591.09
2022-11-29T05:49:58.217Z,94594.69
2022-11-29T05:52:24.786Z,94594.03
2022-11-29T05:54:51.117Z,94597.31
2022-11-29T05:57:17.612Z,94590.13
2022-11-29T05:59:44.984Z,94593.25
2022-11-29T06:02:11.400Z,94593.75
2022-11-29T06:04:37.840Z,94595.41
2022-11-29T06:07:04.160Z,94598.69
2022-11-29T06:09:30.488Z,94595.06
2022-11-29T06:11:56.820Z,94599.34
2022-11-29T06:14:23.151Z,94601.66
2022-11-29T06:16:51.555Z,94594.78
2022-11-29T06:19:17.908Z,94597.41
2022-11-29T06:21:44.663Z,94594.91
2022-11-29T06:24:11.015Z,94608.19
2022-11-29T06:26:37.365Z,94601.97
2022-11-29T06:29:03.747Z,94608.84
2022-11-29T06:31:30.164Z,94610.16
2022-11-29T06:33:56.592Z,94618.97
2022-11-29T06:36:22.963Z,94611.72
2022-11-29T06:38:49.377Z,94613.06
2022-11-29T06:41:15.918Z,94614.69
2022-11-29T06:43:42.289Z,94610.94
2022-11-29T06:46:08.661Z,94620.97
2022-11-29T06:48:35.003Z,94617.34
2022-11-29T06:51:01.435Z,94621.78
2022-11-29T06:53:27.799Z,94620.97
2022-11-29T06:55:54.179Z,94623.28
2022-11-29T06:58:20.514Z,94626.41
2022-11-29T07:00:46.935Z,94622.66
2022-11-29T07:03:13.408Z,94619.72
2022-11-29T07:05:39.754Z,94621.03
2022-11-29T07:08:06.120Z,94616.47
2022-11-29T07:10:32.500Z,94620.72
2022-11-29T07:12:58.934Z,94623.84
2022-11-29T07:15:25.303Z,94625.81
2022-11-29T07:17:51.674Z,94632.72
2022-11-29T07:20:18.039Z,94637.97
2022-11-29T07:22:44.425Z,94641.03
2022-11-29T07:25:10.788Z,94642.72
2022-11-29T07:27:37.218Z,94637.13
2022-11-29T07:30:03.553Z,94640.41
2022-11-29T07:32:29.962Z,94638.47
2022-11-29T07:34:56.413Z,94635.53
2022-11-29T07:37:22.786Z,94637.81
2022-11-29T07:39:49.212Z,94642.25
2022-11-29T07:42:15.607Z,94641.78
2022-11-29T07:44:42.026Z,94643.41
2022-11-29T07:47:08.406Z,94644.91
2022-11-29T07:49:34.866Z,94647.34
2022-11-29T07:52:01.221Z,94648.19
2022-11-29T07:54:27.679Z,94637.06
2022-11-29T07:56:54.050Z,94642.97
2022-11-29T07:59:20.428Z,94634.78
2022-11-29T08:01:46.915Z,94642.50
2022-11-29T08:04:13.267Z,94639.53
2022-11-29T08:06:39.674Z,94647.59
2022-11-29T08:09:06.012Z,94639.25
2022-11-29T08:11:32.378Z,94648.09
2022-11-29T08:13:58.889Z,94640.75
2022-11-29T08:16:25.312Z,94647.47
2022-11-29T08:18:53.754Z,94645.63
2022-11-29T08:21:20.122Z,94651.38
2022-11-29T08:23:46.494Z,94647.47
2022-11-29T08:26:12.826Z,94658.78
2022-11-29T08:28:39.186Z,94654.88
2022-11-29T08:31:05.513Z,94663.91
2022-11-29T08:33:31.836Z,94662.59
2022-11-29T08:35:58.190Z,94669.50
2022-11-29T08:38:24.627Z,94668.50
2022-11-29T08:40:51.091Z,94673.13
2022-11-29T08:43:17.454Z,94672.00
2022-11-29T08:45:43.945Z,94672.81
2022-11-29T08:48:10.729Z,94671.69
2022-11-29T08:50:37.567Z,94676.13
2022-11-29T08:53:03.941Z,94674.16
2022-11-29T08:55:30.330Z,94682.03
2022-11-29T08:57:56.752Z,94682.88
2022-11-29T09:00:23.390Z,94678.09
2022-11-29T09:02:49.788Z,94692.22
2022-11-29T09:05:16.130Z,94693.88
2022-11-29T09:07:42.551Z,94694.38
2022-11-29T09:10:08.927Z,94695.88
2022-11-29T09:12:35.293Z,94693.06
2022-11-29T09:15:01.635Z,94688.16
2022-11-29T09:17:28.488Z,94684.22
2022-11-29T09:19:54.904Z,94689.78
2022-11-29T09:22:21.309Z,94697.50
2022-11-29T09:24:47.931Z,94696.84
2022-11-29T09:27:14.590Z,94702.09
2022-11-29T09:29:41.634Z,94694.22
2022-11-29T09:32:08.085Z,94698.50
2022-11-29T09:34:34.443Z,94706.88
2022-11-29T09:37:00.897Z,94703.75
2022-11-29T09:39:27.230Z,94701.78
2022-11-29T09:41:53.697Z,94708.19
2022-11-29T09:44:20.141Z,94703.41
2022-11-29T09:46:47.058Z,94710.31
2022-11-29T09:49:13.450Z,94700.44
2022-11-29T09:51:44.441Z,94708.66
2022-11-29T09:54:11.414Z,94704.22
2022-11-29T09:56:37.905Z,94706.22
2022-11-29T09:59:04.377Z,94710.00
2022-11-29T10:01:30.924Z,94702.94
2022-11-29T10:03:57.328Z,94703.13
2022-11-29T10:06:23.878Z,94702.09
2022-11-29T10:08:50.663Z,94704.09
2022-11-29T10:11:16.994Z,94708.34
2022-11-29T10:13:43.736Z,94715.38
2022-11-29T10:16:10.101Z,94707.19
2022-11-29T10:18:44.062Z,94703.72
2022-11-29T10:21:10.472Z,94707.69
2022-11-29T10:23:36.955Z,94713.09
2022-11-29T10:26:04.572Z,94706.53
2022-11-29T10:28:30.943Z,94702.44
2022-11-29T10:30:59.866Z,94702.25
2022-11-29T10:33:26.207Z,94706.00
2022-11-29T10:35:52.691Z,94709.91
2022-11-29T10:38:30.659Z,94703.03
2022-11-29T10:40:59.734Z,94694.69
2022-11-29T10:43:26.241Z,94694.88
2022-11-29T10:45:52.634Z,94686.31
2022-11-29T10:48:21.453Z,94688.28
2022-11-29T10:50:47.927Z,94688.31
2022-11-29T10:53:14.503Z,94687.63
2022-11-29T10:55:40.872Z,94687.63
2022-11-29T10:58:07.800Z,94689.63
2022-11-29T11:00:34.426Z,94687.97
2022-11-29T11:03:01.139Z,94688.63
2022-11-29T11:05:27.702Z,94686.66
2022-11-29T11:07:55.469Z,94683.00
2022-11-29T11:10:26.019Z,94680.34
2022-11-29T11:12:59.886Z,94689.09
2022-11-29T11:15:26.671Z,94682.81
2022-11-29T11:17:53.225Z,94686.81
2022-11-29T11:20:19.619Z,94678.91
2022-11-29T11:22:46.006Z,94685.00
2022-11-29T11:25:12.481Z,94682.84
2022-11-29T11:27:38.882Z,94676.78
2022-11-29T11:30:05.449Z,94680.03
2022-11-29T11:32:31.885Z,94671.63
2022-11-29T11:34:58.228Z,94680.69
2022-11-29T11:37:24.552Z,94676.91
2022-11-29T11:39:51.091Z,94684.78
2022-11-29T11:42:17.460Z,94681.84
2022-11-29T11:44:47.924Z,94687.59
2022-11-29T11:47:14.701Z,94682.31
2022-11-29T11:49:43.702Z,94679.03
2022-11-29T11:52:10.568Z,94683.47
2022-11-29T11:54:36.944Z,94686.28
2022-11-29T11:57:03.397Z,94686.63
2022-11-29T11:59:30.021Z,94681.38
2022-11-29T12:01:56.359Z,94687.28
2022-11-29T12:04:22.686Z,94685.13
2022-11-29T12:06:49.090Z,94683.81
2022-11-29T12:09:15.525Z,94682.69
2022-11-29T12:11:42.062Z,94688.91
2022-11-29T12:14:08.466Z,94689.25
2022-11-29T12:16:34.810Z,94692.34
2022-11-29T12:19:01.257Z,94696.47
2022-11-29T12:21:27.659Z,94695.97
2022-11-29T12:23:54.063Z,94691.56
2022-11-29T12:26:54.836Z,94696.63
2022-11-29T12:29:06.964Z,94691.22
2022-11-29T12:31:33.927Z,94693.69
2022-11-29T12:34:00.590Z,94688.59
2022-11-29T12:36:27.178Z,94694.34
2022-11-29T12:38:53.698Z,94692.03
2022-11-29T12:41:20.152Z,94695.00
2022-11-29T12:43:46.590Z,94687.59
2022-11-29T12:46:13.226Z,94697.47
2022-11-29T12:48:39.698Z,94701.41
2022-11-29T12:51:07.097Z,94686.78
2022-11-29T12:53:33.704Z,94694.03
2022-11-29T12:56:02.552Z,94691.91
2022-11-29T12:58:28.986Z,94696.84
2022-11-29T13:00:55.361Z,94697.97
2022-11-29T13:03:21.844Z,94695.53
2022-11-29T13:05:48.216Z,94696.34
2022-11-29T13:08:17.012Z,94692.88
2022-11-29T13:10:43.439Z,94700.47
2022-11-29T13:13:09.982Z,94692.56
2022-11-29T13:15:38.590Z,94697.47
2022-11-29T13:18:05.057Z,94693.53
2022-11-29T13:20:31.779Z,94696.50
2022-11-29T13:22:58.163Z,94696.63
2022-11-29T13:25:24.735Z,94695.16
2022-11-29T13:27:51.231Z,94696.63
2022-11-29T13:30:17.621Z,94697.28
2022-11-29T13:32:44.642Z,94693.69
2022-11-29T13:35:11.044Z,94699.78
2022-11-29T13:37:38.038Z,94698.47
2022-11-29T13:40:04.744Z,94693.53
2022-11-29T13:42:32.128Z,94695.19
2022-11-29T13:44:58.693Z,94696.50
2022-11-29T13:47:25.029Z,94704.22
2022-11-29T13:49:51.514Z,94698.47
2022-11-29T13:52:17.891Z,94699.91
2022-11-29T13:54:44.666Z,94696.34
2022-11-29T13:57:11.226Z,94697.16
2022-11-29T13:59:38.905Z,94698.47
2022-11-29T14:02:08.205Z,94701.75
2022-11-29T14:04:35.068Z,94695.66
2022-11-29T14:07:01.554Z,94708.50
2022-11-29T14:09:32.838Z,94704.53
2022-11-29T14:12:00.152Z,94709.81
2022-11-29T14:14:26.778Z,94709.00
2022-11-29T14:16:53.777Z,94708.66
2022-11-29T14:19:20.318Z,94709.97
2022-11-29T14:21:46.772Z,94711.63
2022-11-29T14:24:13.231Z,94716.25
2022-11-29T14:26:40.003Z,94717.69
2022-11-29T14:29:06.449Z,94722.81
2022-11-29T14:31:32.873Z,94719.69
2022-11-29T14:33:59.460Z,94715.41
2022-11-29T14:36:25.916Z,94715.25
2022-11-29T14:38:52.246Z,94719.53
2022-11-29T14:41:18.613Z,94714.94
2022-11-29T14:43:47.133Z,94713.91
2022-11-29T14:46:13.602Z,94718.34
2022-11-29T14:48:40.039Z,94714.09
2022-11-29T14:51:06.475Z,94715.91
2022-11-29T14:53:32.996Z,94723.78
2022-11-29T14:55:59.367Z,94722.47
2022-11-29T14:58:26.191Z,94718.69
2022-11-29T15:00:53.640Z,94726.44
2022-11-29T15:03:20.150Z,94720.84
2022-11-29T15:05:46.528Z,94724.81
2022-11-29T15:08:12.969Z,94726.91
2022-11-29T15:10:39.567Z,94731.22
2022-11-29T15:13:06.349Z,94724.94
2022-11-29T15:15:32.827Z,94725.94
2022-11-29T15:17:59.932Z,94732.19
2022-11-29T15:20:26.411Z,94730.72
2022-11-29T15:22:52.742Z,94729.41
2022-11-29T15:25:19.098Z,94732.84
2022-11-29T15:27:45.461Z,94728.09
2022-11-29T15:30:12.013Z,94738.63
2022-11-29T15:32:38.681Z,94743.06
2022-11-29T15:35:05.166Z,94744.56
2022-11-29T15:37:31.643Z,94736.66
2022-11-29T15:39:57.970Z,94744.38
2022-11-29T15:42:28.379Z,94738.94
2022-11-29T15:44:57.664Z,94743.91
2022-11-29T15:47:24.688Z,94744.88
2022-11-29T15:49:51.371Z,94744.22
2022-11-29T15:52:20.492Z,94742.72
2022-11-29T15:54:47.628Z,94740.91
2022-11-29T15:57:14.463Z,94739.28
2022-11-29T15:59:40.840Z,94738.94
2022-11-29T16:02:07.353Z,94741.75
2022-11-29T16:04:33.724Z,94740.59
2022-11-29T16:07:00.088Z,94751.63
2022-11-29T16:09:26.453Z,94748.50
2022-11-29T16:11:52.837Z,94750.97
2022-11-29T16:14:19.168Z,94750.97
2022-11-29T16:16:45.574Z,94758.50
2022-11-29T16:19:12.010Z,94768.22
2022-11-29T16:21:38.492Z,94754.25
2022-11-29T16:24:04.928Z,94757.06
2022-11-29T16:26:31.304Z,94753.59
2022-11-29T16:29:00.001Z,94760.34
2022-11-29T16:31:26.390Z,94761.66
2022-11-29T16:33:52.853Z,94747.19
2022-11-29T16:36:19.212Z,94765.25
2022-11-29T16:38:46.092Z,94758.38
2022-11-29T16:41:12.433Z,94757.72
2022-11-29T16:43:38.761Z,94756.03
2022-11-29T16:46:05.380Z,94766.25
2022-11-29T16:48:31.796Z,94762.94
2022-11-29T16:50:58.135Z,94765.88
2022-11-29T16:53:24.511Z,94766.22
2022-11-29T16:55:51.301Z,94774.28
2022-11-29T16:58:17.710Z,94771.00
2022-11-29T17:00:44.302Z,94766.03
2022-11-29T17:03:10.675Z,94764.56
2022-11-29T17:05:41.621Z,94757.31
2022-11-29T17:08:10.934Z,94761.25
2022-11-29T17:10:37.261Z,94766.00
2022-11-29T17:13:04.625Z,94763.06
2022-11-29T17:15:33.760Z,94766.16
2022-11-29T17:18:00.458Z,94770.09
2022-11-29T17:20:26.787Z,94768.09
2022-11-29T17:22:53.356Z,94767.72
2022-11-29T17:25:19.757Z,94772.66
2022-11-29T17:27:46.121Z,94761.66
2022-11-29T17:30:12.480Z,94771.63
2022-11-29T17:32:39.063Z,94771.28
2022-11-29T17:35:05.475Z,94775.38
2022-11-29T17:37:31.870Z,94782.72
2022-11-29T17:40:00.766Z,94777.81
2022-11-29T17:42:27.132Z,94784.34
2022-11-29T17:44:55.299Z,94783.03
2022-11-29T17:47:21.638Z,94784.31
2022-11-29T17:49:48.322Z,94783.66
2022-11-29T17:52:15.009Z,94778.03
2022-11-29T17:54:41.473Z,94782.78
2022-11-29T17:57:07.962Z,94783.41
2022-11-29T17:59:34.318Z,94784.19
2022-11-29T18:02:01.158Z,94787.69
2022-11-29T18:04:27.787Z,94784.84
2022-11-29T18:06:54.290Z,94792.50
2022-11-29T18:09:20.858Z,94795.88
2022-11-29T18:11:48.975Z,94799.28
2022-11-29T18:14:16.053Z,94797.78
2022-11-29T18:16:42.582Z,94796.94
2022-11-29T18:19:09.064Z,94797.94
2022-11-29T18:21:35.383Z,94795.16
2022-11-29T18:24:01.722Z,94804.66
2022-11-29T18:26:28.243Z,94798.28
2022-11-29T18:28:57.023Z,94798.97
2022-11-29T18:31:23.579Z,94808.28
2022-11-29T18:33:52.422Z,94804.97
2022-11-29T18:36:18.786Z,94816.44
2022-11-29T18:38:45.239Z,94809.31
2022-11-29T18:41:11.652Z,94814.97
2022-11-29T18:43:40.131Z,94815.13
2022-11-29T18:46:06.989Z,94817.31
2022-11-29T18:48:33.549Z,94819.94
2022-11-29T18:50:59.951Z,94824.09
2022-11-29T18:53:26.335Z,94824.09
2022-11-29T18:55:52.671Z,94822.16
2022-11-29T18:58:18.995Z,94819.53
2022-11-29T19:00:45.401Z,94814.69
2022-11-29T19:03:11.862Z,94813.84
2022-11-29T19:05:40.496Z,94824.22
2022-11-29T19:08:07.052Z,94820.47
2022-11-29T19:10:33.519Z,94821.84
2022-11-29T19:12:59.876Z,94823.19
2022-11-29T19:15:26.458Z,94829.78
2022-11-29T19:17:53.685Z,94818.16
2022-11-29T19:20:20.486Z,94831.63
2022-11-29T19:22:46.969Z,94826.94
2022-11-29T19:25:13.425Z,94829.22
2022-11-29T19:27:39.817Z,94832.38
2022-11-29T19:30:06.342Z,94834.88
2022-11-29T19:32:32.726Z,94830.41
2022-11-29T19:34:59.159Z,94824.22
2022-11-29T19:37:25.575Z,94826.66
2022-11-29T19:39:51.942Z,94825.41
2022-11-29T19:42:18.806Z,94820.81
2022-11-29T19:45:15.329Z,94827.72
2022-11-29T19:47:32.644Z,94826.22
2022-11-29T19:50:02.375Z,94829.81
2022-11-29T19:52:29.372Z,94832.31
2022-11-29T19:54:55.887Z,94836.88
2022-11-29T19:57:22.276Z,94835.66
2022-11-29T19:59:48.772Z,94833.19
2022-11-29T20:02:15.327Z,94837.50
2022-11-29T20:04:41.750Z,94826.84
2022-11-29T20:07:10.524Z,94836.22
2022-11-29T20:09:37.070Z,94825.41
2022-11-29T20:12:03.411Z,94832.97
2022-11-29T20:14:29.843Z,94830.03
2022-11-29T20:16:56.348Z,94831.97
2022-11-29T20:19:22.817Z,94825.91
2022-11-29T20:21:49.186Z,94827.06
2022-11-29T20:24:15.608Z,94828.03
2022-11-29T20:26:42.066Z,94826.06
2022-11-29T20:29:08.442Z,94834.38
2022-11-29T20:31:34.894Z,94827.19
2022-11-29T20:34:01.440Z,94836.88
2022-11-29T20:36:27.843Z,94831.31
2022-11-29T20:38:54.328Z,94827.56
2022-11-29T20:41:20.901Z,94827.41
2022-11-29T20:43:47.255Z,94836.13
2022-11-29T20:46:13.665Z,94828.91
2022-11-29T20:48:40.068Z,94828.06
2022-11-29T20:51:06.450Z,94829.75
2022-11-29T20:53:32.837Z,94841.88
2022-11-29T20:55:59.196Z,94836.34
2022-11-29T20:58:25.613Z,94830.91
2022-11-29T21:00:52.258Z,94841.09
2022-11-29T21:03:19.774Z,94837.69
2022-11-29T21:05:46.179Z,94837.00
2022-11-29T21:08:12.589Z,94842.38
2022-11-29T21:10:39.087Z,94839.91
2022-11-29T21:13:05.471Z,94834.50
2022-11-29T21:15:31.962Z,94839.63
2022-11-29T21:17:58.439Z,94835.84
2022-11-29T21:20:24.836Z,94839.31
2022-11-29T21:22:51.623Z,94839.31
2022-11-29T21:25:20.398Z,94838.19
2022-11-29T21:27:46.840Z,94840.97
2022-11-29T21:30:15.731Z,94834.72
2022-11-29T21:32:42.152Z,94841.31
2022-11-29T21:35:08.518Z,94832.59
2022-11-29T21:37:34.925Z,94833.78
2022-11-29T21:40:01.320Z,94839.88
2022-11-29T21:42:27.683Z,94834.31
2022-11-29T21:44:54.159Z,94845.78
2022-11-29T21:47:20.550Z,94841.06
2022-11-29T21:49:47.983Z,94842.88
2022-11-29T21:52:19.076Z,94838.41
2022-11-29T21:54:49.001Z,94841.06
2022-11-29T21:57:15.834Z,94839.41
2022-11-29T21:59:42.228Z,94839.69
2022-11-29T22:02:08.697Z,94843.09
2022-11-29T22:04:35.190Z,94833.22
2022-11-29T22:07:01.580Z,94842.72
2022-11-29T22:09:27.916Z,94837.47
2022-11-29T22:11:54.269Z,94838.13
2022-11-29T22:14:20.754Z,94839.94
2022-11-29T22:16:49.396Z,94846.97
2022-11-29T22:19:15.725Z,94846.31
2022-11-29T22:21:42.338Z,94847.63
2022-11-29T22:24:08.791Z,94844.06
2022-11-29T22:26:35.195Z,94844.56
2022-11-29T22:29:01.543Z,94838.34
2022-11-29T22:31:27.915Z,94842.94
2022-11-29T22:33:54.320Z,94843.44
2022-11-29T22:36:20.723Z,94850.03
2022-11-29T22:38:47.106Z,94847.44
2022-11-29T22:41:13.504Z,94847.13
2022-11-29T22:43:39.888Z,94843.03
2022-11-29T22:46:06.236Z,94842.53
2022-11-29T22:48:38.262Z,94841.88
2022-11-29T22:51:05.558Z,94848.13
2022-11-29T22:53:33.947Z,94844.78
2022-11-29T22:56:00.275Z,94844.94
2022-11-29T22:58:26.654Z,94842.31
2022-11-29T23:00:53.085Z,94847.19
2022-11-29T23:03:19.463Z,94847.56
2022-11-29T23:05:45.812Z,94848.34
2022-11-29T23:08:12.175Z,94841.81
2022-11-29T23:10:38.551Z,94849.06
2022-11-29T23:13:04.953Z,94846.44
2022-11-29T23:15:31.346Z,94846.00
2022-11-29T23:17:57.845Z,94844.88
2022-11-29T23:20:24.221Z,94844.03
2022-11-29T23:22:50.602Z,94844.03
2022-11-29T23:25:16.946Z,94849.78
2022-11-29T23:27:43.267Z,94844.88
2022-11-29T23:30:09.637Z,94843.56
2022-11-29T23:32:35.986Z,94848.16
2022-11-29T23:35:02.349Z,94844.03
2022-11-29T23:37:28.674Z,94843.19
2022-11-29T23:39:55.242Z,94839.59
2022-11-29T23:42:21.621Z,94841.88
2022-11-29T23:44:48.353Z,94843.53
2022-11-29T23:47:14.835Z,94838.28
2022-11-29T23:49:41.279Z,94838.56
2022-11-29T23:52:07.611Z,94833.31
2022-11-29T23:54:34.053Z,94836.94
2022-11-29T23:57:00.383Z,94836.44
2022-11-29T23:59:26.754Z,94832.66
